createdAt,value
2018-09-21T00:02:27.461Z,99195.81
2018-09-21T00:04:56.098Z,99191.17
2018-09-21T00:07:24.632Z,99186.52
2018-09-21T00:09:53.203Z,99173.34
2018-09-21T00:12:21.797Z,99172.42
2018-09-21T00:14:50.380Z,99176.76
2018-09-21T00:17:18.849Z,99162.17
2018-09-21T00:19:47.445Z,99160.46
2018-09-21T00:22:16.006Z,99163.50
2018-09-21T00:24:44.518Z,99156.55
2018-09-21T00:27:13.010Z,99158.39
2018-09-21T00:29:41.521Z,99154.75
2018-09-21T00:32:10.092Z,99155.45
2018-09-21T00:34:38.600Z,99159.35
2018-09-21T00:37:07.249Z,99149.00
2018-09-21T00:39:35.742Z,99146.55
2018-09-21T00:42:04.261Z,99151.30
2018-09-21T00:44:32.764Z,99152.09
2018-09-21T00:47:01.253Z,99148.95
2018-09-21T00:49:29.822Z,99134.59
2018-09-21T00:51:58.342Z,99142.80
2018-09-21T00:54:26.870Z,99134.55
2018-09-21T00:56:55.397Z,99153.97
2018-09-21T00:59:24.039Z,99139.75
2018-09-21T01:01:52.533Z,99137.58
2018-09-21T01:04:21.057Z,99112.69
2018-09-21T01:06:49.601Z,99111.36
2018-09-21T01:09:18.132Z,99123.22
2018-09-21T01:11:46.700Z,99108.24
2018-09-21T01:14:15.155Z,99108.34
2018-09-21T01:16:43.697Z,99093.29
2018-09-21T01:19:12.157Z,99102.58
2018-09-21T01:21:40.637Z,99095.91
2018-09-21T01:24:09.204Z,99084.81
2018-09-21T01:26:37.689Z,98913.20
2018-09-21T01:29:06.413Z,99096.13
2018-09-21T01:31:35.050Z,99075.02
2018-09-21T01:34:03.540Z,99081.28
2018-09-21T01:36:32.093Z,99066.09
2018-09-21T01:39:00.580Z,99062.31
2018-09-21T01:41:29.052Z,99078.56
2018-09-21T01:43:57.756Z,99061.13
2018-09-21T01:46:26.252Z,99049.72
2018-09-21T01:48:54.734Z,99060.44
2018-09-21T01:51:23.258Z,99040.43
2018-09-21T01:53:51.773Z,99050.36
2018-09-21T01:56:20.361Z,99043.78
2018-09-21T01:58:48.940Z,99037.62
2018-09-21T02:01:17.444Z,99026.77
2018-09-21T02:03:46.044Z,99030.77
2018-09-21T02:06:14.528Z,99030.67
2018-09-21T02:08:43.021Z,99014.99
2018-09-21T02:11:11.572Z,99017.94
2018-09-21T02:13:40.121Z,99016.55
2018-09-21T02:16:08.601Z,99006.34
2018-09-21T02:18:37.085Z,99005.02
2018-09-21T02:21:05.569Z,99014.12
2018-09-21T02:23:34.034Z,99012.05
2018-09-21T02:26:02.612Z,99000.09
2018-09-21T02:28:31.123Z,98986.44
2018-09-21T02:30:59.608Z,98983.95
2018-09-21T02:33:28.134Z,98974.02
2018-09-21T02:35:56.656Z,98975.62
2018-09-21T02:38:25.178Z,98964.22
2018-09-21T02:40:53.708Z,98959.42
2018-09-21T02:43:22.151Z,98966.50
2018-09-21T02:45:50.667Z,98944.34
2018-09-21T02:48:19.120Z,98944.41
2018-09-21T02:50:47.636Z,98933.61
2018-09-21T02:53:16.071Z,98928.44
2018-09-21T02:55:44.557Z,98918.13
2018-09-21T02:58:13.031Z,98930.66
2018-09-21T03:00:41.701Z,98943.74
2018-09-21T03:03:10.163Z,98907.97
2018-09-21T03:05:38.669Z,98905.90
2018-09-21T03:08:07.157Z,98897.79
2018-09-21T03:10:35.665Z,98897.69
2018-09-21T03:13:04.233Z,98892.97
2018-09-21T03:15:32.768Z,98894.44
2018-09-21T03:18:01.533Z,98886.95
2018-09-21T03:20:30.120Z,98877.72
2018-09-21T03:22:58.720Z,98874.08
2018-09-21T03:25:27.324Z,98862.43
2018-09-21T03:27:55.918Z,98872.50
2018-09-21T03:30:24.518Z,98858.08
2018-09-21T03:32:53.117Z,98847.39
2018-09-21T03:35:21.724Z,98836.50
2018-09-21T03:37:50.335Z,98835.03
2018-09-21T03:40:18.942Z,98829.84
2018-09-21T03:42:47.543Z,98818.75
2018-09-21T03:45:16.053Z,98818.03
2018-09-21T03:47:44.631Z,98808.92
2018-09-21T03:50:13.134Z,98808.47
2018-09-21T03:52:41.716Z,98804.31
2018-09-21T03:55:10.298Z,98790.59
2018-09-21T03:57:38.864Z,98801.43
2018-09-21T04:00:07.997Z,98783.31
2018-09-21T04:02:36.968Z,98784.78
2018-09-21T04:05:06.829Z,98789.16
2018-09-21T04:07:35.459Z,98790.35
2018-09-21T04:10:03.922Z,98787.21
2018-09-21T04:12:32.469Z,98783.20
2018-09-21T04:15:01.008Z,98779.92
2018-09-21T04:17:29.498Z,98777.50
2018-09-21T04:19:58.028Z,98777.98
2018-09-21T04:22:26.571Z,98792.09
2018-09-21T04:24:55.085Z,98777.41
2018-09-21T04:27:23.581Z,98761.84
2018-09-21T04:29:52.134Z,98758.45
2018-09-21T04:32:20.630Z,98764.16
2018-09-21T04:34:49.244Z,98760.65
2018-09-21T04:37:17.760Z,98768.52
2018-09-21T04:39:46.325Z,98788.45
2018-09-21T04:42:14.891Z,98771.45
2018-09-21T04:44:43.448Z,98763.79
2018-09-21T04:47:11.933Z,98760.76
2018-09-21T04:49:40.654Z,98755.05
2018-09-21T04:52:09.378Z,98761.02
2018-09-21T04:54:38.112Z,98738.78
2018-09-21T04:57:07.001Z,98746.68
2018-09-21T04:59:35.828Z,98742.67
2018-09-21T05:02:04.677Z,98728.09
2018-09-21T05:04:33.429Z,98726.14
2018-09-21T05:07:02.329Z,98720.55
2018-09-21T05:09:30.932Z,98708.06
2018-09-21T05:11:59.668Z,98718.38
2018-09-21T05:14:28.486Z,98719.61
2018-09-21T05:16:57.170Z,98707.59
2018-09-21T05:19:26.192Z,98726.39
2018-09-21T05:21:54.892Z,98711.45
2018-09-21T05:24:23.678Z,98714.98
2018-09-21T05:26:52.464Z,98700.77
2018-09-21T05:29:21.204Z,98720.55
2018-09-21T05:31:50.150Z,98708.67
2018-09-21T05:34:18.917Z,98718.86
2018-09-21T05:36:47.618Z,98689.36
2018-09-21T05:39:16.814Z,98701.98
2018-09-21T05:41:45.866Z,98724.34
2018-09-21T05:44:14.538Z,98709.39
2018-09-21T05:46:43.508Z,98708.67
2018-09-21T05:49:13.202Z,98701.73
2018-09-21T05:51:42.399Z,98710.73
2018-09-21T05:54:11.296Z,98696.20
2018-09-21T05:56:40.748Z,98709.14
2018-09-21T05:59:09.220Z,98687.19
2018-09-21T06:01:37.930Z,98701.27
2018-09-21T06:04:06.481Z,98700.29
2018-09-21T06:06:35.076Z,98688.19
2018-09-21T06:09:04.482Z,98701.12
2018-09-21T06:11:33.368Z,98680.03
2018-09-21T06:14:02.013Z,98698.98
2018-09-21T06:16:30.470Z,98697.90
2018-09-21T06:18:59.049Z,98705.77
2018-09-21T06:21:27.620Z,98698.88
2018-09-21T06:23:56.231Z,98708.23
2018-09-21T06:26:24.856Z,98708.22
2018-09-21T06:28:53.716Z,98692.41
2018-09-21T06:31:22.347Z,98700.57
2018-09-21T06:33:51.369Z,98686.84
2018-09-21T06:36:20.504Z,98709.77
2018-09-21T06:38:49.311Z,98709.18
2018-09-21T06:41:17.914Z,98734.20
2018-09-21T06:43:46.631Z,98731.62
2018-09-21T06:46:15.841Z,98707.22
2018-09-21T06:48:44.525Z,98706.61
2018-09-21T06:51:13.135Z,98723.38
2018-09-21T06:53:41.700Z,98717.92
2018-09-21T06:56:10.346Z,98702.50
2018-09-21T06:58:38.987Z,98706.02
2018-09-21T07:01:08.086Z,98703.23
2018-09-21T07:03:36.753Z,98693.16
2018-09-21T07:06:05.311Z,98707.60
2018-09-21T07:08:33.831Z,98715.38
2018-09-21T07:11:02.355Z,98706.52
2018-09-21T07:13:30.911Z,98719.38
2018-09-21T07:15:59.742Z,98727.75
2018-09-21T07:18:28.394Z,98740.89
2018-09-21T07:20:57.027Z,98738.69
2018-09-21T07:23:25.637Z,98738.07
2018-09-21T07:25:54.353Z,98730.41
2018-09-21T07:28:23.206Z,98736.52
2018-09-21T07:30:51.955Z,98758.47
2018-09-21T07:33:20.524Z,98745.97
2018-09-21T07:35:54.937Z,98751.67
2018-09-21T07:38:28.831Z,98737.84
2018-09-21T07:41:02.426Z,98739.28
2018-09-21T07:43:31.212Z,98723.97
2018-09-21T07:45:59.870Z,98722.88
2018-09-21T07:48:28.478Z,98718.98
2018-09-21T07:50:57.060Z,98734.90
2018-09-21T07:53:25.792Z,98734.80
2018-09-21T07:55:54.405Z,98706.95
2018-09-21T07:58:23.104Z,98712.66
2018-09-21T08:00:51.674Z,98672.24
2018-09-21T08:03:20.460Z,98706.11
2018-09-21T08:05:49.012Z,98709.62
2018-09-21T08:08:17.630Z,98698.09
2018-09-21T08:10:46.255Z,98710.59
2018-09-21T08:13:15.060Z,98695.53
2018-09-21T08:15:43.979Z,98697.12
2018-09-21T08:18:16.652Z,98710.01
2018-09-21T08:20:45.466Z,98711.09
2018-09-21T08:23:14.171Z,98714.73
2018-09-21T08:25:42.793Z,98705.37
2018-09-21T08:28:11.438Z,98699.77
2018-09-21T08:30:40.307Z,98704.02
2018-09-21T08:33:09.042Z,98683.45
2018-09-21T08:35:37.605Z,98689.91
2018-09-21T08:38:06.362Z,98664.88
2018-09-21T08:40:35.109Z,98678.11
2018-09-21T08:43:03.744Z,98597.09
2018-09-21T08:45:32.484Z,98700.02
2018-09-21T08:48:01.230Z,98721.28
2018-09-21T08:50:29.922Z,98732.23
2018-09-21T08:52:58.699Z,98763.81
2018-09-21T08:55:27.550Z,98786.67
2018-09-21T08:58:04.328Z,98831.19
2018-09-21T09:00:32.930Z,98845.30
2018-09-21T09:03:01.647Z,98868.61
2018-09-21T09:05:30.696Z,98875.21
2018-09-21T09:07:59.418Z,98891.48
2018-09-21T09:10:28.114Z,98923.86
2018-09-21T09:12:56.744Z,98931.19
2018-09-21T09:15:25.317Z,98931.11
2018-09-21T09:17:53.768Z,98938.58
2018-09-21T09:20:22.376Z,98958.08
2018-09-21T09:22:51.119Z,98965.09
2018-09-21T09:25:19.807Z,98997.14
2018-09-21T09:52:03.711Z,99033.02
2018-09-21T09:54:32.300Z,99023.03
2018-09-21T09:57:00.960Z,99000.44
2018-09-21T09:59:29.821Z,99011.31
2018-09-21T10:01:58.571Z,99032.17
2018-09-21T10:04:27.150Z,99012.78
2018-09-21T10:06:55.801Z,99050.80
2018-09-21T10:09:24.452Z,99045.59
2018-09-21T10:11:53.080Z,99043.02
2018-09-21T10:14:21.934Z,99055.33
2018-09-21T10:16:50.505Z,99051.56
2018-09-21T10:19:19.132Z,99049.29
2018-09-21T10:21:47.984Z,99046.11
2018-09-21T10:24:16.727Z,99052.74
2018-09-21T10:26:45.439Z,99053.52
2018-09-21T10:29:14.096Z,99045.48
2018-09-21T10:31:42.630Z,98991.50
2018-09-21T10:34:11.177Z,99040.95
2018-09-21T10:36:39.855Z,99066.52
2018-09-21T10:39:08.869Z,99062.22
2018-09-21T10:41:37.646Z,99050.45
2018-09-21T10:44:07.794Z,99057.23
2018-09-21T10:46:36.539Z,99056.53
2018-09-21T10:49:05.015Z,99064.23
2018-09-21T10:51:33.721Z,99062.66
2018-09-21T10:54:02.431Z,99050.92
2018-09-21T10:56:30.974Z,99043.70
2018-09-21T10:58:59.591Z,99042.56
2018-09-21T11:01:28.248Z,99049.89
2018-09-21T11:03:57.012Z,99045.88
2018-09-21T11:06:25.736Z,99048.34
2018-09-21T11:08:54.324Z,98942.81
2018-09-21T11:11:22.977Z,99047.83
2018-09-21T11:13:51.756Z,99063.11
2018-09-21T11:16:20.487Z,99041.94
2018-09-21T11:18:49.088Z,99059.31
2018-09-21T11:21:17.635Z,99048.23
2018-09-21T11:23:46.116Z,99060.97
2018-09-21T11:26:14.691Z,99069.44
2018-09-21T11:28:43.288Z,99070.30
2018-09-21T11:31:11.733Z,99056.01
2018-09-21T11:33:40.201Z,99059.78
2018-09-21T11:36:08.691Z,99071.86
2018-09-21T11:38:37.287Z,99061.21
2018-09-21T11:41:05.891Z,99054.35
2018-09-21T11:43:34.388Z,99059.27
2018-09-21T11:46:02.935Z,99060.95
2018-09-21T11:48:31.781Z,99058.43
2018-09-21T11:51:00.259Z,99070.95
2018-09-21T11:53:28.809Z,99064.27
2018-09-21T11:55:57.403Z,99076.65
2018-09-21T11:58:25.931Z,99073.40
2018-09-21T12:00:54.591Z,99066.23
2018-09-21T12:03:23.258Z,99059.95
2018-09-21T12:05:51.818Z,99068.33
2018-09-21T12:08:20.441Z,99075.06
2018-09-21T12:10:49.108Z,99076.22
2018-09-21T12:13:17.656Z,99073.50
2018-09-21T12:15:46.244Z,99065.17
2018-09-21T12:18:14.820Z,99082.13
2018-09-21T12:20:43.406Z,99085.92
2018-09-21T12:23:11.934Z,99086.05
2018-09-21T12:25:40.540Z,99089.92
2018-09-21T12:28:09.083Z,99092.86
2018-09-21T12:30:37.686Z,99102.33
2018-09-21T12:33:06.287Z,99099.48
2018-09-21T12:35:34.886Z,99105.95
2018-09-21T12:38:03.569Z,99115.10
2018-09-21T12:40:32.489Z,99125.81
2018-09-21T12:43:01.057Z,99131.34
2018-09-21T12:45:29.551Z,99145.29
2018-09-21T12:47:58.155Z,99143.85
2018-09-21T12:50:26.726Z,99152.67
2018-09-21T12:52:55.216Z,99148.95
2018-09-21T12:55:23.740Z,99149.78
2018-09-21T12:57:52.285Z,99160.72
2018-09-21T13:00:20.779Z,99158.17
2018-09-21T13:02:49.350Z,99177.49
2018-09-21T13:05:17.850Z,99187.09
2018-09-21T13:07:46.470Z,99184.14
2018-09-21T13:10:15.037Z,99188.99
2018-09-21T13:12:43.586Z,99191.76
2018-09-21T13:15:12.167Z,99188.36
2018-09-21T13:17:40.774Z,99205.16
2018-09-21T13:20:09.337Z,99196.42
2018-09-21T13:22:38.052Z,99194.61
2018-09-21T13:25:06.681Z,99201.56
2018-09-21T13:27:35.189Z,99210.95
2018-09-21T13:30:04.264Z,99225.66
2018-09-21T13:32:32.844Z,99231.26
2018-09-21T13:35:01.378Z,99233.08
2018-09-21T13:37:29.856Z,99223.47
2018-09-21T13:39:58.350Z,99227.62
2018-09-21T13:42:27.014Z,99231.61
2018-09-21T13:44:55.667Z,99241.22
2018-09-21T13:47:24.131Z,99236.55
2018-09-21T13:49:52.596Z,99241.59
2018-09-21T13:52:21.111Z,99249.80
2018-09-21T13:54:51.092Z,99238.31
2018-09-21T13:57:19.523Z,99242.70
2018-09-21T13:59:48.085Z,99253.27
2018-09-21T14:02:16.597Z,99263.06
2018-09-21T14:04:45.094Z,99245.66
2018-09-21T14:07:13.594Z,99244.73
2018-09-21T14:09:42.228Z,99254.52
2018-09-21T14:12:10.687Z,99268.69
2018-09-21T14:14:39.166Z,99262.30
2018-09-21T14:17:07.734Z,99264.03
2018-09-21T14:19:36.273Z,99256.83
2018-09-21T14:22:04.680Z,99274.81
2018-09-21T14:24:33.150Z,99266.72
2018-09-21T14:27:01.623Z,99271.16
2018-09-21T14:29:30.154Z,99264.31
2018-09-21T14:31:58.742Z,99271.99
2018-09-21T14:34:27.213Z,99267.72
2018-09-21T14:36:55.771Z,99279.88
2018-09-21T14:39:24.411Z,99282.92
2018-09-21T14:41:52.946Z,99292.05
2018-09-21T14:44:21.818Z,99296.91
2018-09-21T14:46:50.403Z,99302.15
2018-09-21T14:49:18.893Z,99304.83
2018-09-21T14:51:47.529Z,99289.41
2018-09-21T14:54:16.204Z,99297.00
2018-09-21T14:56:44.808Z,99296.95
2018-09-21T14:59:13.394Z,99306.45
2018-09-21T15:01:42.012Z,99309.88
2018-09-21T15:04:10.682Z,99331.30
2018-09-21T15:06:39.200Z,99314.80
2018-09-21T15:09:09.081Z,99315.63
2018-09-21T15:11:37.750Z,99336.47
2018-09-21T15:14:06.332Z,99336.27
2018-09-21T15:16:34.908Z,99340.65
2018-09-21T15:19:03.487Z,99332.06
2018-09-21T15:21:32.009Z,99352.74
2018-09-21T15:24:00.543Z,99344.34
2018-09-21T15:26:29.128Z,99361.70
2018-09-21T15:28:57.873Z,99350.00
2018-09-21T15:31:26.494Z,99350.76
2018-09-21T15:33:55.101Z,99361.59
2018-09-21T15:36:23.695Z,99355.97
2018-09-21T15:38:52.265Z,99359.77
2018-09-21T15:41:20.800Z,99357.28
2018-09-21T15:43:49.377Z,99358.18
2018-09-21T15:46:18.883Z,99360.71
2018-09-21T15:48:47.452Z,99359.48
2018-09-21T15:51:15.943Z,99354.94
2018-09-21T15:53:44.479Z,99364.17
2018-09-21T15:56:13.450Z,99389.02
2018-09-21T16:04:23.846Z,99373.80
2018-09-21T16:06:53.099Z,99386.86
2018-09-21T16:09:21.837Z,99378.16
2018-09-21T16:11:50.348Z,99387.09
2018-09-21T16:14:18.961Z,99398.14
2018-09-21T16:16:47.593Z,99397.55
2018-09-21T16:19:16.132Z,99399.91
2018-09-21T16:21:44.723Z,99401.61
2018-09-21T16:24:13.277Z,99400.62
2018-09-21T16:26:42.107Z,99405.93
2018-09-21T16:29:10.645Z,99354.61
2018-09-21T16:31:39.619Z,99409.74
2018-09-21T16:34:09.295Z,99411.77
2018-09-21T16:36:37.920Z,99409.41
2018-09-21T16:39:08.792Z,99409.89
2018-09-21T16:41:37.484Z,99407.02
2018-09-21T16:44:06.497Z,99422.48
2018-09-21T16:46:35.324Z,99405.69
2018-09-21T16:49:03.971Z,99405.11
2018-09-21T16:51:32.515Z,99413.34
2018-09-21T16:54:01.169Z,99418.94
2018-09-21T16:56:29.698Z,99417.84
2018-09-21T16:58:58.595Z,99415.42
2018-09-21T17:01:27.415Z,99421.41
2018-09-21T17:03:56.226Z,99430.14
2018-09-21T17:06:24.878Z,99400.81
2018-09-21T17:08:53.715Z,99441.02
2018-09-21T17:11:22.573Z,99430.82
2018-09-21T17:13:51.391Z,99436.17
2018-09-21T17:16:20.117Z,99439.09
2018-09-21T17:18:48.760Z,99445.16
2018-09-21T17:21:17.357Z,99458.23
2018-09-21T17:23:45.920Z,99455.46
2018-09-21T17:26:14.558Z,99460.58
2018-09-21T17:31:10.940Z,99465.56
2018-09-21T17:33:39.571Z,99473.72
2018-09-21T17:36:08.153Z,99480.75
2018-09-21T17:38:37.153Z,99496.00
2018-09-21T17:41:05.732Z,99494.00
2018-09-21T17:43:34.273Z,99496.03
2018-09-21T17:46:02.872Z,99491.02
2018-09-21T17:48:31.859Z,99495.97
2018-09-21T17:51:00.985Z,99501.38
2018-09-21T17:53:30.155Z,99503.77
2018-09-21T17:55:58.828Z,99508.86
2018-09-21T17:58:27.551Z,99513.28
2018-09-21T18:00:56.370Z,99518.18
2018-09-21T18:03:25.265Z,99524.94
2018-09-21T18:05:53.981Z,99532.92
2018-09-21T18:08:22.673Z,99540.56
2018-09-21T18:10:51.460Z,99549.08
2018-09-21T18:13:20.211Z,99544.29
2018-09-21T18:15:49.140Z,99555.94
2018-09-21T18:18:19.410Z,99481.94
2018-09-21T18:20:48.252Z,99558.42
2018-09-21T18:23:16.946Z,99560.22
2018-09-21T18:25:45.747Z,99566.09
2018-09-21T18:28:14.446Z,99559.61
2018-09-21T18:30:43.102Z,99556.48
2018-09-21T18:33:11.813Z,99557.09
2018-09-21T18:35:40.642Z,99564.51
2018-09-21T18:38:09.258Z,99564.41
2018-09-21T18:40:38.026Z,99570.89
2018-09-21T18:43:07.146Z,99572.02
2018-09-21T18:45:35.872Z,99585.95
2018-09-21T18:48:06.103Z,99601.17
2018-09-21T18:50:36.479Z,99599.40
2018-09-21T18:53:08.143Z,99600.83
2018-09-21T18:55:38.079Z,99617.77
2018-09-21T18:58:09.478Z,99620.06
2018-09-21T19:00:39.427Z,99633.56
2018-09-21T19:03:15.129Z,99633.88
2018-09-21T19:05:45.392Z,99638.03
2018-09-21T19:08:16.764Z,99665.24
2018-09-21T19:10:53.151Z,99650.59
2018-09-21T19:13:23.481Z,99661.09
2018-09-21T19:15:54.586Z,99652.17
2018-09-21T19:18:27.549Z,99673.63
2018-09-21T19:21:00.090Z,99674.45
2018-09-21T19:23:30.885Z,99670.27
2018-09-21T19:26:00.835Z,99679.97
2018-09-21T19:28:31.260Z,99684.07
2018-09-21T19:31:01.655Z,99679.22
2018-09-21T19:33:32.163Z,99690.78
2018-09-21T19:36:01.945Z,99705.34
2018-09-21T19:38:31.829Z,99694.36
2018-09-21T19:41:01.636Z,99708.52
2018-09-21T19:43:32.997Z,99700.58
2018-09-21T19:46:03.626Z,99707.67
2018-09-21T19:48:33.931Z,99700.17
2018-09-21T19:51:03.728Z,99700.62
2018-09-21T19:53:32.549Z,99706.44
2018-09-21T19:56:01.183Z,99716.10
2018-09-21T19:58:30.178Z,99377.85
2018-09-21T20:00:58.906Z,99717.20
2018-09-21T20:03:27.684Z,99720.64
2018-09-21T20:05:56.844Z,99719.80
2018-09-21T20:08:25.710Z,99714.50
2018-09-21T20:10:54.538Z,99718.42
2018-09-21T20:13:24.072Z,99718.87
2018-09-21T20:15:53.411Z,99729.02
2018-09-21T20:18:22.506Z,99744.38
2018-09-21T20:20:52.534Z,99735.72
2018-09-21T20:23:21.400Z,99731.35
2018-09-21T20:25:50.141Z,99741.02
2018-09-21T20:28:19.081Z,99758.73
2018-09-21T20:30:53.253Z,99748.28
2018-09-21T20:33:27.322Z,99763.23
2018-09-21T20:35:56.535Z,99757.98
2018-09-21T20:38:25.723Z,99761.20
2018-09-21T20:40:54.387Z,99767.32
2018-09-21T20:43:23.241Z,99764.72
2018-09-21T20:45:52.099Z,99771.38
2018-09-21T20:48:20.978Z,99763.09
2018-09-21T20:50:49.619Z,99776.84
2018-09-21T20:53:18.414Z,99775.59
2018-09-21T20:55:47.640Z,99781.84
2018-09-21T20:58:16.302Z,99769.98
2018-09-21T21:00:45.139Z,99767.86
2018-09-21T21:03:14.208Z,99783.38
2018-09-21T21:05:43.001Z,99798.33
2018-09-21T21:08:11.603Z,99783.09
2018-09-21T21:10:40.676Z,99794.28
2018-09-21T21:13:09.518Z,99791.31
2018-09-21T21:15:38.261Z,99793.59
2018-09-21T21:18:07.469Z,99801.98
2018-09-21T21:20:36.354Z,99798.17
2018-09-21T21:23:05.761Z,99613.44
2018-09-21T21:25:34.778Z,99788.66
2018-09-21T21:28:03.492Z,99804.20
2018-09-21T21:30:32.479Z,99813.65
2018-09-21T21:33:01.286Z,99818.80
2018-09-21T21:35:30.470Z,99818.43
2018-09-21T21:37:59.532Z,99828.94
2018-09-21T21:40:28.725Z,99831.36
2018-09-21T21:42:57.541Z,99846.18
2018-09-21T21:45:26.441Z,99838.39
2018-09-21T21:47:55.091Z,99848.66
2018-09-21T21:50:24.062Z,99850.94
2018-09-21T21:52:52.696Z,99850.67
2018-09-21T21:55:21.545Z,99852.56
2018-09-21T21:57:50.057Z,99872.04
2018-09-21T22:00:18.568Z,99865.97
2018-09-21T22:02:47.049Z,99866.48
2018-09-21T22:05:15.472Z,99867.43
2018-09-21T22:07:43.939Z,99860.36
2018-09-21T22:10:12.418Z,99873.90
2018-09-21T22:12:45.948Z,99877.19
2018-09-21T22:15:18.112Z,99881.01
2018-09-21T22:17:46.992Z,99880.91
2018-09-21T22:20:15.628Z,99882.77
2018-09-21T22:22:44.189Z,99888.02
2018-09-21T22:25:12.818Z,99897.91
2018-09-21T22:27:41.973Z,99911.12
2018-09-21T22:30:10.522Z,99895.70
2018-09-21T22:32:39.666Z,99895.30
2018-09-21T22:35:08.225Z,99907.73
2018-09-21T22:37:36.806Z,99902.48
2018-09-21T22:40:05.368Z,99908.64
2018-09-21T22:42:33.954Z,99912.78
2018-09-21T22:45:02.578Z,99908.47
2018-09-21T22:47:31.135Z,99915.95
2018-09-21T22:49:59.712Z,99923.13
2018-09-21T22:52:28.291Z,99920.52
2018-09-21T22:54:56.875Z,99922.86
2018-09-21T22:57:25.462Z,99926.38
2018-09-21T22:59:53.930Z,99932.13
2018-09-21T23:02:22.459Z,99922.48
2018-09-21T23:04:51.094Z,99928.17
2018-09-21T23:07:19.660Z,99920.78
2018-09-21T23:09:48.288Z,99928.36
2018-09-21T23:12:16.840Z,99932.73
2018-09-21T23:14:45.365Z,99929.17
2018-09-21T23:17:13.926Z,99931.72
2018-09-21T23:19:42.478Z,99934.23
2018-09-21T23:22:11.024Z,99938.13
2018-09-21T23:24:39.563Z,99941.93
2018-09-21T23:27:08.131Z,99948.37
2018-09-21T23:29:36.721Z,99951.28
2018-09-21T23:32:05.215Z,99961.75
2018-09-21T23:34:33.930Z,99953.25
2018-09-21T23:37:02.512Z,99963.22
2018-09-21T23:39:31.101Z,99962.23
2018-09-21T23:41:59.819Z,99893.84
2018-09-21T23:44:28.561Z,99964.41
2018-09-21T23:46:57.156Z,99964.88
2018-09-21T23:49:25.801Z,99974.47
2018-09-21T23:51:54.473Z,99982.45
2018-09-21T23:54:23.124Z,99986.33
2018-09-21T23:56:51.631Z,99982.80
2018-09-21T23:59:20.211Z,99988.05
